Aviation Digital Data Service (ADDS)

Output produced by METARs form (1134 UTC 19 January 2018)
found at http://www.aviationweather.gov/adds/metars/
 
KPOU 191053Z AUTO 00000KT 6SM BR CLR M14/M16 A3002 RMK AO2 SLP166 I1000 T11441161